»·PEaware :: N921VN M93-S36

N921VN :: M93-S36

FLIGHT INFORMATION

Flight Status: Arrived
Operator: Privately registered:
United States
More flights under this callsign
Pilot: Kevin M. (7)
Aircraft: BEECH AIRCRAFT BARON
(BE58)
More flights by this aircraft type
Origin: M93 Houston Co
United States
Destination: S36 Norman Grier Field
United States
More flights between these airports :: More routes between these airports
Route: YKM V4 BLAKO
File this flight plan on PilotEdge
Remarks:
Altitude:
(Current/Filed)
10,000ft
Speed:
(Current/Filed)
150kts
Departed: 21-Apr-20 11:20 AM
Arrived: 21-Apr-20 12:11 PM
Distance/Time
Traveled:
1649nm/0:51
Distance/Time
To Go:
Arrived

Flight Plot

Page will automatically refresh every two minutes.

Flight plan parsing failed; only flown route is shown


Map Options




Map Legend


Flown Route
Filed Route
Departure Airport
Arrival Airport
Navaid (VOR, NDB)
Fix

Horizontal Profiles

Position Reports

Time Latitude Longitude Heading Altitude Ground
Speed
21-Apr-20 11:18 46.684499 -119.913853 116 585ft 1kts
21-Apr-20 11:19 46.684778 -119.913380 21 587ft 1kts
21-Apr-20 11:20 46.695804 -119.939792 320 1307ft 121kts
21-Apr-20 11:21 46.736458 -119.937732 18 1878ft 170kts
21-Apr-20 11:22 46.782927 -119.921146 5 2384ft 171kts
21-Apr-20 11:23 46.830123 -119.911401 3 2888ft 169kts
21-Apr-20 11:23 46.869266 -119.905774 356 3295ft 167kts
21-Apr-20 11:24 46.915575 -119.905919 330 3776ft 162kts
21-Apr-20 11:26 46.926557 -119.978513 278 4373ft 158kts
21-Apr-20 11:27 46.930772 -120.041701 276 4874ft 153kts
21-Apr-20 11:27 46.934544 -120.093923 277 5290ft 153kts
21-Apr-20 11:28 46.939359 -120.155980 277 5791ft 151kts
21-Apr-20 11:30 46.940045 -120.228138 270 6360ft 150kts
21-Apr-20 11:30 46.939384 -120.280002 270 6766ft 150kts
21-Apr-20 11:31 46.938936 -120.341157 270 7249ft 149kts
21-Apr-20 11:32 46.938685 -120.403100 270 7738ft 154kts
21-Apr-20 11:33 46.938658 -120.466566 270 8227ft 155kts
21-Apr-20 11:34 46.938987 -120.530867 270 8722ft 157kts
21-Apr-20 11:35 46.939471 -120.595366 270 9209ft 156kts
21-Apr-20 11:36 46.940229 -120.659706 270 9701ft 156kts
21-Apr-20 11:37 46.941088 -120.723860 270 10210ft 157kts
21-Apr-20 11:38 46.942097 -120.788348 270 10586ft 164kts
21-Apr-20 11:39 46.943256 -120.857728 270 10581ft 172kts
21-Apr-20 11:40 46.944368 -120.928369 270 10581ft 173kts
21-Apr-20 11:41 46.945383 -120.999244 270 10579ft 173kts
21-Apr-20 11:42 46.946101 -121.069891 274 10580ft 173kts
21-Apr-20 11:43 46.949881 -121.140375 275 10580ft 173kts
21-Apr-20 11:44 46.954568 -121.210413 282 10581ft 172kts
21-Apr-20 11:45 46.971329 -121.275616 296 10625ft 172kts
21-Apr-20 11:46 46.995359 -121.337036 301 10603ft 176kts
21-Apr-20 11:47 47.023458 -121.400648 303 10095ft 188kts
21-Apr-20 11:48 47.052176 -121.463331 304 10009ft 180kts
21-Apr-20 11:49 47.080194 -121.523899 303 10006ft 179kts
21-Apr-20 11:50 47.108253 -121.584306 304 10005ft 178kts
21-Apr-20 11:51 47.136433 -121.644731 303 10001ft 178kts
21-Apr-20 11:52 47.164086 -121.705555 302 10001ft 179kts
21-Apr-20 11:53 47.191932 -121.766468 302 10002ft 179kts
21-Apr-20 11:54 47.221150 -121.825615 302 10005ft 179kts
21-Apr-20 11:55 47.248837 -121.888307 302 9557ft 196kts
21-Apr-20 11:56 47.279827 -121.957716 302 8369ft 206kts
21-Apr-20 11:57 47.294823 -122.029340 226 7528ft 208kts
21-Apr-20 11:58 47.239856 -122.065751 205 6145ft 223kts
21-Apr-20 11:59 47.192824 -122.114162 274 4835ft 200kts
21-Apr-20 12:00 47.221194 -122.177025 340 3838ft 184kts
21-Apr-20 12:01 47.268724 -122.148967 26 2841ft 189kts
21-Apr-20 12:02 47.308498 -122.109086 31 1520ft 165kts
21-Apr-20 12:03 47.338109 -122.103863 346 586ft 110kts
21-Apr-20 12:04 47.364200 -122.083051 113 1798ft 148kts
21-Apr-20 12:05 47.324599 -122.085834 193 1699ft 134kts
21-Apr-20 12:06 47.323398 -122.113487 21 1259ft 133kts
21-Apr-20 12:07 47.327379 -122.086002 103 1000ft 118kts
21-Apr-20 12:08 47.312627 -122.059400 15 1727ft 115kts
21-Apr-20 12:09 47.323627 -122.098713 308 822ft 85kts
21-Apr-20 12:10 47.339950 -122.103488 107 475ft 0kts

Navigation Log

Ident Type
Flight plan parsing failed, navigation log unavailable